Terminal Aerodrome Forecast
Issued by NWS Twin Cities, MN

Home | Current Version | Previous Version | Text Only | Print | Product List | Glossary Off
Versions: 1 2 3 4 5 6 7 8 9 10 11 12 13 14 15 16 17

489
FTUS43 KMPX 192320
TAFEAU
TAF
KEAU 192320Z 2000/2024 29010KT P6SM BKN090
     FM200830 VRB03KT P6SM VCSH SCT050 BKN090
     FM201000 VRB03KT P6SM -SHRA VCTS OVC090CB
     FM201300 26007KT P6SM -SHRA VCTS BKN090CB
     FM201500 27007KT P6SM BKN070
     FM202200 32008KT P6SM FEW100=

USA.gov is the U.S. government's official web portal to all federal, state and local government web resources and services.